createdAt,value
2022-08-14T00:04:35.762Z,36.91155
2022-08-14T00:10:01.736Z,36.97259
2022-08-14T00:15:51.705Z,37.00949
2022-08-14T00:20:52.729Z,36.90794
2022-08-14T00:26:06.134Z,36.96285
2022-08-14T00:31:09.740Z,36.90353
2022-08-14T00:36:36.954Z,36.91054
2022-08-14T00:41:49.093Z,36.91736
2022-08-14T00:46:50.478Z,36.90001
2022-08-14T00:51:51.543Z,36.85846
2022-08-14T00:56:55.315Z,36.75067
2022-08-14T01:01:57.175Z,36.77603
2022-08-14T01:06:59.194Z,36.6864
2022-08-14T01:12:03.470Z,36.65719
2022-08-14T01:17:04.692Z,36.67605
2022-08-14T01:22:05.623Z,36.73102
2022-08-14T01:27:07.220Z,36.72504
2022-08-14T01:32:10.420Z,36.6948
2022-08-14T01:37:11.617Z,36.73077
2022-08-14T01:42:32.109Z,36.73078
2022-08-14T01:47:37.545Z,36.63421
2022-08-14T01:52:59.588Z,36.68259
2022-08-14T01:58:18.837Z,36.70083
2022-08-14T02:03:22.171Z,36.72497
2022-08-14T02:08:34.426Z,36.7553
2022-08-14T02:13:37.122Z,36.66482
2022-08-14T02:18:38.208Z,36.71318
2022-08-14T02:23:40.466Z,36.74947
2022-08-14T02:28:57.693Z,36.76774
2022-08-14T02:34:00.365Z,36.82818
2022-08-14T02:39:01.405Z,36.8586
2022-08-14T02:44:02.978Z,36.79815
2022-08-14T02:49:08.464Z,36.89476
2022-08-14T02:54:13.250Z,36.90112
2022-08-14T02:59:21.146Z,36.85295
2022-08-14T03:04:22.126Z,36.77485
2022-08-14T03:09:23.131Z,36.76879
2022-08-14T03:14:24.182Z,36.8352
2022-08-14T03:19:25.209Z,36.81726
2022-08-14T03:24:26.208Z,36.87786
2022-08-14T03:29:28.045Z,36.79394
2022-08-14T03:34:47.948Z,36.84242
2022-08-14T03:39:49.638Z,36.89099
2022-08-14T03:45:18.968Z,36.83687
2022-08-14T03:50:31.489Z,36.83115
2022-08-14T03:55:33.266Z,36.91564
2022-08-14T04:00:43.993Z,36.97031
2022-08-14T04:05:48.532Z,37.0667
2022-08-14T04:10:50.281Z,37.13288
2022-08-14T04:16:01.218Z,37.19282
2022-08-14T04:21:04.140Z,37.15016
2022-08-14T04:26:08.213Z,37.10151
2022-08-14T04:31:09.572Z,37.03496
2022-08-14T04:36:16.040Z,37.00502
2022-08-14T04:41:18.627Z,37.05317
2022-08-14T04:46:56.315Z,37.09476
2022-08-14T04:51:58.606Z,37.05188
2022-08-14T04:57:04.043Z,36.93666
2022-08-14T05:02:05.053Z,37.09906
2022-08-14T05:07:06.028Z,37.01385
2022-08-14T05:13:12.841Z,36.89279
2022-08-14T05:18:17.230Z,36.68147
2022-08-14T05:23:38.368Z,36.52322
2022-08-14T05:28:43.466Z,36.18404
2022-08-14T05:33:44.469Z,35.85027
2022-08-14T05:38:56.345Z,35.47387
2022-08-14T05:43:57.949Z,35.00285
2022-08-14T05:48:58.876Z,34.7288
2022-08-14T05:54:12.787Z,34.37666
2022-08-14T05:59:36.839Z,34.30123
2022-08-14T06:04:40.523Z,33.01014
2022-08-14T06:09:42.736Z,33.4697
2022-08-14T06:14:52.020Z,33.43445
2022-08-14T06:19:55.128Z,33.21084
2022-08-14T06:24:57.146Z,32.96759
2022-08-14T06:29:58.075Z,32.89976
2022-08-14T06:35:04.017Z,32.86051
2022-08-14T06:40:25.576Z,32.393
2022-08-14T06:45:28.523Z,32.11996
2022-08-14T06:50:30.519Z,31.58172
2022-08-14T06:55:31.549Z,31.404
2022-08-14T07:00:32.553Z,31.10095
2022-08-14T07:05:33.578Z,30.76592
2022-08-14T07:10:35.716Z,30.37559
2022-08-14T07:15:39.616Z,30.33003
2022-08-14T07:20:43.590Z,29.799
2022-08-14T07:25:45.610Z,26.28643
2022-08-14T07:30:50.685Z,26.14672
2022-08-14T07:35:57.836Z,26.47344
2022-08-14T07:40:59.880Z,26.94096
2022-08-14T07:46:00.912Z,26.87374
2022-08-14T07:51:11.104Z,26.9874
2022-08-14T07:56:21.597Z,26.72871
2022-08-14T08:01:37.739Z,26.39621
2022-08-14T08:06:49.518Z,26.09684
2022-08-14T08:11:54.208Z,25.92069
2022-08-14T08:16:55.581Z,25.82131
2022-08-14T08:21:56.523Z,25.34011
2022-08-14T08:26:57.413Z,25.10645
2022-08-14T08:32:01.811Z,24.75277
2022-08-14T08:37:07.132Z,24.48257
2022-08-14T08:42:08.426Z,24.31444
2022-08-14T08:47:11.279Z,23.9704
2022-08-14T08:52:24.497Z,23.62911
2022-08-14T08:57:26.642Z,23.29331
2022-08-14T09:02:27.924Z,22.96139
2022-08-14T09:07:28.966Z,22.60613
2022-08-14T09:12:32.997Z,22.30949
2022-08-14T09:17:34.169Z,21.94302
2022-08-14T09:22:36.727Z,21.86526
2022-08-14T09:27:48.898Z,21.46328
2022-08-14T09:32:59.539Z,21.15096
2022-08-14T09:38:01.130Z,20.88924
2022-08-14T09:43:02.201Z,20.49109
2022-08-14T09:48:03.189Z,20.022
2022-08-14T09:53:04.520Z,19.36667
2022-08-14T09:58:05.839Z,18.95305
2022-08-14T10:03:09.130Z,18.52688
2022-08-14T10:08:14.980Z,18.09205
2022-08-14T10:13:16.149Z,17.74824
2022-08-14T10:18:18.333Z,17.5514
2022-08-14T10:23:19.512Z,17.12559
2022-08-14T10:28:39.646Z,17.13385
2022-08-14T10:34:20.181Z,17.2158
2022-08-14T10:39:30.451Z,17.3127
2022-08-14T10:44:32.983Z,16.74066
2022-08-14T10:49:33.930Z,16.69495
2022-08-14T10:54:40.048Z,16.46923
2022-08-14T10:59:43.383Z,16.45469
2022-08-14T11:04:44.593Z,16.22434
2022-08-14T11:09:46.790Z,16.00757
2022-08-14T11:14:49.346Z,15.89091
2022-08-14T11:19:53.717Z,15.77291
2022-08-14T11:24:56.069Z,15.72497
2022-08-14T11:30:00.519Z,15.83053
2022-08-14T11:35:53.706Z,15.72765
2022-08-14T11:41:00.833Z,15.67584
2022-08-14T11:46:03.377Z,15.66263
2022-08-14T11:51:04.945Z,15.49877
2022-08-14T11:56:11.040Z,15.43826
2022-08-14T12:01:12.232Z,15.45775
2022-08-14T12:06:28.766Z,15.39591
2022-08-14T12:11:44.244Z,15.31612
2022-08-14T12:16:48.647Z,15.16398
2022-08-14T12:21:50.017Z,14.90737
2022-08-14T12:26:57.821Z,14.63545
2022-08-14T12:32:00.096Z,14.36654
2022-08-14T12:37:01.112Z,13.93631
2022-08-14T12:42:02.145Z,13.67701
2022-08-14T12:47:03.081Z,13.31158
2022-08-14T12:52:11.871Z,13.02368
2022-08-14T12:57:20.382Z,12.71607
2022-08-14T13:02:21.709Z,12.13713
2022-08-14T13:07:27.113Z,11.51988
2022-08-14T13:12:43.196Z,11.05812
2022-08-14T13:17:57.674Z,10.74953
2022-08-14T13:23:01.268Z,10.51086
2022-08-14T13:28:02.294Z,10.05975
2022-08-14T13:33:03.214Z,9.40562
2022-08-14T13:38:04.117Z,9.25933
2022-08-14T13:43:05.685Z,9.11258
2022-08-14T13:48:06.584Z,8.96679
2022-08-14T13:53:07.703Z,8.66324
2022-08-14T13:58:30.011Z,8.51597
2022-08-14T14:03:34.811Z,8.41418
2022-08-14T14:08:43.477Z,8.07386
2022-08-14T14:13:48.425Z,7.93703
2022-08-14T14:18:49.338Z,7.71059
2022-08-14T14:23:53.430Z,7.59536
2022-08-14T14:28:54.827Z,7.76258
2022-08-14T14:33:58.322Z,7.24057
2022-08-14T14:38:59.414Z,6.92391
2022-08-14T14:44:00.376Z,6.74386
2022-08-14T14:49:01.546Z,7.12505
2022-08-14T14:54:04.554Z,7.42317
2022-08-14T14:59:05.525Z,7.35443
2022-08-14T15:04:07.980Z,7.58689
2022-08-14T15:09:23.806Z,7.81544
2022-08-14T15:14:55.028Z,7.84067
2022-08-14T15:19:59.040Z,7.87405
2022-08-14T15:25:00.016Z,7.80063
2022-08-14T15:30:02.249Z,7.68541
2022-08-14T15:35:03.613Z,7.75939
2022-08-14T15:40:10.264Z,7.97499
2022-08-14T15:45:23.302Z,8.12759
2022-08-14T15:50:25.317Z,8.30211
2022-08-14T15:55:27.570Z,8.43363
2022-08-14T16:00:40.486Z,8.64846
2022-08-14T16:05:46.125Z,8.74795
2022-08-14T16:10:47.240Z,8.89004
2022-08-14T16:15:53.069Z,9.01715
2022-08-14T16:20:54.681Z,9.20762
2022-08-14T16:25:55.671Z,9.31153
2022-08-14T16:30:56.618Z,9.44437
2022-08-14T16:36:00.664Z,9.52514
2022-08-14T16:41:01.942Z,9.76071
2022-08-14T16:46:02.871Z,9.89168
2022-08-14T16:51:06.792Z,10.05281
2022-08-14T16:56:07.967Z,10.49764
2022-08-14T17:01:24.451Z,10.84923
2022-08-14T17:06:30.561Z,11.13909
2022-08-14T17:11:37.478Z,11.39237
2022-08-14T17:16:38.571Z,11.79085
2022-08-14T17:21:41.530Z,12.14516
2022-08-14T17:26:42.768Z,12.51287
2022-08-14T17:31:58.600Z,12.80651
2022-08-14T17:37:01.663Z,13.05812
2022-08-14T17:42:03.386Z,13.28839
2022-08-14T17:47:14.596Z,13.53966
2022-08-14T17:52:18.940Z,13.81804
2022-08-14T17:57:41.173Z,14.10639
2022-08-14T18:02:50.626Z,14.33768
2022-08-14T18:08:31.406Z,14.77976
2022-08-14T18:13:51.260Z,14.95981
2022-08-14T18:18:53.640Z,15.23544
2022-08-14T18:23:54.569Z,15.25301
2022-08-14T18:28:55.507Z,15.85771
2022-08-14T18:34:00.105Z,16.47394
2022-08-14T18:39:01.132Z,16.92725
2022-08-14T18:44:02.119Z,17.39629
2022-08-14T18:49:03.031Z,17.54917
2022-08-14T18:54:06.324Z,17.84467
2022-08-14T18:59:11.157Z,18.21184
2022-08-14T19:04:12.073Z,18.43098
2022-08-14T19:09:13.420Z,18.70044
2022-08-14T19:14:14.366Z,18.99656
2022-08-14T19:19:17.394Z,19.26867
2022-08-14T19:24:29.613Z,19.48181
2022-08-14T19:29:37.670Z,19.67765
2022-08-14T19:34:52.779Z,19.89742
2022-08-14T19:39:54.384Z,20.14399
2022-08-14T19:44:55.365Z,20.33147
2022-08-14T19:50:24.535Z,20.5103
2022-08-14T19:55:39.755Z,20.65969
2022-08-14T20:00:51.819Z,20.79186
2022-08-14T20:05:57.527Z,20.84215
2022-08-14T20:11:15.825Z,20.97542
2022-08-14T20:16:32.307Z,21.10128
2022-08-14T20:21:34.573Z,21.24006
2022-08-14T20:26:36.737Z,21.38587
2022-08-14T20:31:38.394Z,21.5528
2022-08-14T20:36:41.824Z,21.7543
2022-08-14T20:41:48.936Z,21.94314
2022-08-14T20:46:52.595Z,22.16973
2022-08-14T20:51:58.802Z,22.35877
2022-08-14T20:57:00.637Z,22.47893
2022-08-14T21:02:01.554Z,22.62952
2022-08-14T21:07:35.522Z,22.8433
2022-08-14T21:12:38.059Z,23.01442
2022-08-14T21:18:28.600Z,23.13412
2022-08-14T21:23:34.853Z,23.20332
2022-08-14T21:28:56.079Z,23.35261
2022-08-14T21:33:57.086Z,23.48384
2022-08-14T21:38:58.155Z,23.56521
2022-08-14T21:44:04.331Z,23.68297
2022-08-14T21:49:10.355Z,23.72663
2022-08-14T21:54:30.250Z,23.77661
2022-08-14T21:59:38.537Z,23.84454
2022-08-14T22:04:41.472Z,23.93943
2022-08-14T22:09:43.006Z,24.05947
2022-08-14T22:14:44.516Z,24.17121
2022-08-14T22:19:54.169Z,24.24771
2022-08-14T22:25:01.919Z,24.39746
2022-08-14T22:30:03.161Z,24.52894
2022-08-14T22:35:04.161Z,24.73928
2022-08-14T22:40:50.903Z,24.86526
2022-08-14T22:46:20.368Z,25.08699
2022-08-14T22:51:21.660Z,25.19196
2022-08-14T22:56:30.263Z,25.32259
2022-08-14T23:01:56.574Z,25.51321
2022-08-14T23:07:02.873Z,25.76193
2022-08-14T23:12:05.576Z,25.93457
2022-08-14T23:17:38.970Z,26.1258
2022-08-14T23:22:40.694Z,26.37144
2022-08-14T23:28:02.652Z,26.52717
2022-08-14T23:33:04.827Z,26.74338
2022-08-14T23:38:06.791Z,26.89796
2022-08-14T23:43:14.187Z,27.05179
2022-08-14T23:48:15.235Z,27.1806
2022-08-14T23:53:28.518Z,27.29138
2022-08-14T23:58:49.515Z,27.36638
